sensor_id;sensor_type;location;lat;lon;timestamp;temperature;humidity
21815;DHT22;11069;48.988;8.450;2023-04-24T00:01:22;10.50;99.90
21815;DHT22;11069;48.988;8.450;2023-04-24T00:03:47;10.50;99.90
21815;DHT22;11069;48.988;8.450;2023-04-24T00:06:13;10.50;99.90
21815;DHT22;11069;48.988;8.450;2023-04-24T00:08:38;10.50;99.90
21815;DHT22;11069;48.988;8.450;2023-04-24T00:11:04;10.30;99.90
21815;DHT22;11069;48.988;8.450;2023-04-24T00:13:30;10.30;99.90
21815;DHT22;11069;48.988;8.450;2023-04-24T00:15:56;10.30;99.90
21815;DHT22;11069;48.988;8.450;2023-04-24T00:18:21;10.40;99.90
21815;DHT22;11069;48.988;8.450;2023-04-24T00:20:47;10.40;99.90
21815;DHT22;11069;48.988;8.450;2023-04-24T00:23:13;10.50;99.90
21815;DHT22;11069;48.988;8.450;2023-04-24T00:25:38;10.50;99.90
21815;DHT22;11069;48.988;8.450;2023-04-24T00:28:05;10.50;99.90
21815;DHT22;11069;48.988;8.450;2023-04-24T00:30:31;10.60;99.90
21815;DHT22;11069;48.988;8.450;2023-04-24T00:32:57;10.70;99.90
21815;DHT22;11069;48.988;8.450;2023-04-24T00:35:23;10.70;99.90
21815;DHT22;11069;48.988;8.450;2023-04-24T00:37:49;10.70;99.90
21815;DHT22;11069;48.988;8.450;2023-04-24T00:40:15;10.80;99.90
21815;DHT22;11069;48.988;8.450;2023-04-24T00:42:41;10.80;99.90
21815;DHT22;11069;48.988;8.450;2023-04-24T00:45:07;10.90;99.90
21815;DHT22;11069;48.988;8.450;2023-04-24T00:47:33;11.00;99.90
21815;DHT22;11069;48.988;8.450;2023-04-24T00:50:02;11.00;99.90
21815;DHT22;11069;48.988;8.450;2023-04-24T00:52:28;11.10;99.90
21815;DHT22;11069;48.988;8.450;2023-04-24T00:54:56;11.00;99.90
21815;DHT22;11069;48.988;8.450;2023-04-24T00:57:22;10.90;99.90
21815;DHT22;11069;48.988;8.450;2023-04-24T00:59:49;10.90;99.90
21815;DHT22;11069;48.988;8.450;2023-04-24T01:02:15;10.80;99.90
21815;DHT22;11069;48.988;8.450;2023-04-24T01:04:41;10.70;99.90
21815;DHT22;11069;48.988;8.450;2023-04-24T01:07:06;10.70;99.90
21815;DHT22;11069;48.988;8.450;2023-04-24T01:09:40;10.60;99.90
21815;DHT22;11069;48.988;8.450;2023-04-24T01:12:06;10.60;99.90
21815;DHT22;11069;48.988;8.450;2023-04-24T01:14:33;10.70;99.90
21815;DHT22;11069;48.988;8.450;2023-04-24T01:16:58;10.70;99.90
21815;DHT22;11069;48.988;8.450;2023-04-24T01:19:24;10.60;99.90
21815;DHT22;11069;48.988;8.450;2023-04-24T01:21:53;10.60;99.90
21815;DHT22;11069;48.988;8.450;2023-04-24T01:24:22;10.60;99.90
21815;DHT22;11069;48.988;8.450;2023-04-24T01:26:47;10.70;99.90
21815;DHT22;11069;48.988;8.450;2023-04-24T01:29:13;10.70;99.90
21815;DHT22;11069;48.988;8.450;2023-04-24T01:31:39;10.70;99.90
21815;DHT22;11069;48.988;8.450;2023-04-24T01:34:05;10.80;99.90
21815;DHT22;11069;48.988;8.450;2023-04-24T01:36:33;10.90;99.90
21815;DHT22;11069;48.988;8.450;2023-04-24T01:39:00;10.90;99.90
21815;DHT22;11069;48.988;8.450;2023-04-24T01:41:26;11.00;99.90
21815;DHT22;11069;48.988;8.450;2023-04-24T01:43:52;11.10;99.90
21815;DHT22;11069;48.988;8.450;2023-04-24T01:46:18;11.20;99.90
21815;DHT22;11069;48.988;8.450;2023-04-24T01:48:45;11.30;99.90
21815;DHT22;11069;48.988;8.450;2023-04-24T01:51:11;11.30;99.90
21815;DHT22;11069;48.988;8.450;2023-04-24T01:53:36;11.40;99.90
21815;DHT22;11069;48.988;8.450;2023-04-24T01:56:02;11.40;99.90
21815;DHT22;11069;48.988;8.450;2023-04-24T01:58:28;11.30;99.90
21815;DHT22;11069;48.988;8.450;2023-04-24T02:00:56;11.40;99.90
21815;DHT22;11069;48.988;8.450;2023-04-24T02:03:22;11.40;99.90
21815;DHT22;11069;48.988;8.450;2023-04-24T02:05:47;11.50;99.90
21815;DHT22;11069;48.988;8.450;2023-04-24T02:08:13;11.50;99.90
21815;DHT22;11069;48.988;8.450;2023-04-24T02:10:39;11.40;99.90
21815;DHT22;11069;48.988;8.450;2023-04-24T02:13:04;11.30;99.90
21815;DHT22;11069;48.988;8.450;2023-04-24T02:15:30;11.20;99.90
21815;DHT22;11069;48.988;8.450;2023-04-24T02:17:55;11.20;99.90
21815;DHT22;11069;48.988;8.450;2023-04-24T02:20:21;11.10;99.90
21815;DHT22;11069;48.988;8.450;2023-04-24T02:22:47;11.10;99.90
21815;DHT22;11069;48.988;8.450;2023-04-24T02:25:13;11.20;99.90
21815;DHT22;11069;48.988;8.450;2023-04-24T02:27:38;11.30;99.90
21815;DHT22;11069;48.988;8.450;2023-04-24T02:30:04;11.30;99.90
21815;DHT22;11069;48.988;8.450;2023-04-24T02:32:30;11.40;99.90
21815;DHT22;11069;48.988;8.450;2023-04-24T02:34:56;11.40;99.90
21815;DHT22;11069;48.988;8.450;2023-04-24T02:37:21;11.50;99.90
21815;DHT22;11069;48.988;8.450;2023-04-24T02:39:47;11.50;99.90
21815;DHT22;11069;48.988;8.450;2023-04-24T02:42:13;11.50;99.90
21815;DHT22;11069;48.988;8.450;2023-04-24T02:44:38;11.60;99.90
21815;DHT22;11069;48.988;8.450;2023-04-24T02:47:04;11.50;99.90
21815;DHT22;11069;48.988;8.450;2023-04-24T02:49:29;11.60;99.90
21815;DHT22;11069;48.988;8.450;2023-04-24T02:51:55;11.60;99.90
21815;DHT22;11069;48.988;8.450;2023-04-24T02:54:20;11.70;99.90
21815;DHT22;11069;48.988;8.450;2023-04-24T02:56:46;11.70;99.90
21815;DHT22;11069;48.988;8.450;2023-04-24T02:59:11;11.70;99.90
21815;DHT22;11069;48.988;8.450;2023-04-24T03:01:37;11.50;99.90
21815;DHT22;11069;48.988;8.450;2023-04-24T03:04:03;11.50;99.90
21815;DHT22;11069;48.988;8.450;2023-04-24T03:06:29;11.30;99.90
21815;DHT22;11069;48.988;8.450;2023-04-24T03:08:56;11.20;99.90
21815;DHT22;11069;48.988;8.450;2023-04-24T03:11:22;11.10;99.90
21815;DHT22;11069;48.988;8.450;2023-04-24T03:13:47;11.00;99.90
21815;DHT22;11069;48.988;8.450;2023-04-24T03:16:13;10.80;99.90
21815;DHT22;11069;48.988;8.450;2023-04-24T03:18:38;10.60;99.90
21815;DHT22;11069;48.988;8.450;2023-04-24T03:21:04;10.50;99.90
21815;DHT22;11069;48.988;8.450;2023-04-24T03:23:29;10.40;99.90
21815;DHT22;11069;48.988;8.450;2023-04-24T03:25:55;10.30;99.90
21815;DHT22;11069;48.988;8.450;2023-04-24T03:28:20;10.30;99.90
21815;DHT22;11069;48.988;8.450;2023-04-24T03:30:46;10.20;99.90
21815;DHT22;11069;48.988;8.450;2023-04-24T03:33:12;10.10;99.90
21815;DHT22;11069;48.988;8.450;2023-04-24T03:35:37;10.10;99.90
21815;DHT22;11069;48.988;8.450;2023-04-24T03:38:03;10.10;99.90
21815;DHT22;11069;48.988;8.450;2023-04-24T03:40:34;10.10;99.90
21815;DHT22;11069;48.988;8.450;2023-04-24T03:43:03;10.10;99.90
21815;DHT22;11069;48.988;8.450;2023-04-24T03:45:28;10.10;99.90
21815;DHT22;11069;48.988;8.450;2023-04-24T03:47:54;10.10;99.90
21815;DHT22;11069;48.988;8.450;2023-04-24T03:50:20;10.00;99.90
21815;DHT22;11069;48.988;8.450;2023-04-24T03:52:45;10.00;99.90
21815;DHT22;11069;48.988;8.450;2023-04-24T03:55:11;9.90;99.90
21815;DHT22;11069;48.988;8.450;2023-04-24T03:57:39;9.80;99.90
21815;DHT22;11069;48.988;8.450;2023-04-24T04:00:05;9.80;99.90
21815;DHT22;11069;48.988;8.450;2023-04-24T04:02:31;9.80;99.90
21815;DHT22;11069;48.988;8.450;2023-04-24T04:04:57;9.80;99.90
21815;DHT22;11069;48.988;8.450;2023-04-24T04:07:22;9.80;99.90
21815;DHT22;11069;48.988;8.450;2023-04-24T04:09:48;9.80;99.90
21815;DHT22;11069;48.988;8.450;2023-04-24T04:12:13;9.70;99.90
21815;DHT22;11069;48.988;8.450;2023-04-24T04:14:39;9.60;99.90
21815;DHT22;11069;48.988;8.450;2023-04-24T04:17:05;9.70;99.90
21815;DHT22;11069;48.988;8.450;2023-04-24T04:19:33;9.60;99.90
21815;DHT22;11069;48.988;8.450;2023-04-24T04:21:59;9.70;99.90
21815;DHT22;11069;48.988;8.450;2023-04-24T04:24:25;9.60;99.90
21815;DHT22;11069;48.988;8.450;2023-04-24T04:26:51;9.60;99.90
21815;DHT22;11069;48.988;8.450;2023-04-24T04:29:17;9.60;99.90
21815;DHT22;11069;48.988;8.450;2023-04-24T04:31:46;9.50;99.90
21815;DHT22;11069;48.988;8.450;2023-04-24T04:34:11;9.50;99.90
21815;DHT22;11069;48.988;8.450;2023-04-24T04:36:38;9.40;99.90
21815;DHT22;11069;48.988;8.450;2023-04-24T04:39:05;9.30;99.90
21815;DHT22;11069;48.988;8.450;2023-04-24T04:41:31;9.20;99.90
21815;DHT22;11069;48.988;8.450;2023-04-24T04:43:56;9.10;99.90
21815;DHT22;11069;48.988;8.450;2023-04-24T04:46:24;9.20;99.90
21815;DHT22;11069;48.988;8.450;2023-04-24T04:49:00;9.20;99.90
21815;DHT22;11069;48.988;8.450;2023-04-24T04:51:27;9.10;99.90
21815;DHT22;11069;48.988;8.450;2023-04-24T04:53:53;9.20;99.90
21815;DHT22;11069;48.988;8.450;2023-04-24T04:56:18;9.20;99.90
21815;DHT22;11069;48.988;8.450;2023-04-24T04:58:44;9.20;99.90
21815;DHT22;11069;48.988;8.450;2023-04-24T05:01:10;9.10;99.90
21815;DHT22;11069;48.988;8.450;2023-04-24T05:03:35;9.10;99.90
21815;DHT22;11069;48.988;8.450;2023-04-24T05:06:02;9.10;99.90
21815;DHT22;11069;48.988;8.450;2023-04-24T05:08:28;9.10;99.90
21815;DHT22;11069;48.988;8.450;2023-04-24T05:10:54;9.10;99.90
21815;DHT22;11069;48.988;8.450;2023-04-24T05:13:20;9.20;99.90
21815;DHT22;11069;48.988;8.450;2023-04-24T05:15:46;9.20;99.90
21815;DHT22;11069;48.988;8.450;2023-04-24T05:18:11;9.20;99.90
21815;DHT22;11069;48.988;8.450;2023-04-24T05:20:37;9.30;99.90
21815;DHT22;11069;48.988;8.450;2023-04-24T05:23:02;9.40;99.90
21815;DHT22;11069;48.988;8.450;2023-04-24T05:25:28;9.50;99.90
21815;DHT22;11069;48.988;8.450;2023-04-24T05:28:14;9.70;99.90
21815;DHT22;11069;48.988;8.450;2023-04-24T05:30:41;9.80;99.90
21815;DHT22;11069;48.988;8.450;2023-04-24T05:33:07;9.90;99.90
21815;DHT22;11069;48.988;8.450;2023-04-24T05:35:33;10.10;99.90
21815;DHT22;11069;48.988;8.450;2023-04-24T05:37:59;10.10;99.90
21815;DHT22;11069;48.988;8.450;2023-04-24T05:40:24;10.30;99.90
21815;DHT22;11069;48.988;8.450;2023-04-24T05:42:50;10.30;99.90
21815;DHT22;11069;48.988;8.450;2023-04-24T05:45:16;10.40;99.90
21815;DHT22;11069;48.988;8.450;2023-04-24T05:47:42;10.50;99.90
21815;DHT22;11069;48.988;8.450;2023-04-24T05:50:10;10.50;99.90
21815;DHT22;11069;48.988;8.450;2023-04-24T05:52:35;10.70;99.90
21815;DHT22;11069;48.988;8.450;2023-04-24T05:55:01;10.80;99.90
21815;DHT22;11069;48.988;8.450;2023-04-24T05:57:27;10.70;99.90
21815;DHT22;11069;48.988;8.450;2023-04-24T05:59:52;10.70;99.90
21815;DHT22;11069;48.988;8.450;2023-04-24T06:02:18;10.80;99.90
21815;DHT22;11069;48.988;8.450;2023-04-24T06:04:44;10.80;99.90
21815;DHT22;11069;48.988;8.450;2023-04-24T06:07:11;10.90;99.90
21815;DHT22;11069;48.988;8.450;2023-04-24T06:09:36;10.90;99.90
21815;DHT22;11069;48.988;8.450;2023-04-24T06:12:02;11.00;99.90
21815;DHT22;11069;48.988;8.450;2023-04-24T06:14:28;10.90;99.90
21815;DHT22;11069;48.988;8.450;2023-04-24T06:16:54;11.10;99.90
21815;DHT22;11069;48.988;8.450;2023-04-24T06:19:19;11.10;99.90
21815;DHT22;11069;48.988;8.450;2023-04-24T06:21:45;11.20;99.90
21815;DHT22;11069;48.988;8.450;2023-04-24T06:24:10;11.20;99.90
21815;DHT22;11069;48.988;8.450;2023-04-24T06:26:37;11.30;99.90
21815;DHT22;11069;48.988;8.450;2023-04-24T06:29:02;11.30;99.90
21815;DHT22;11069;48.988;8.450;2023-04-24T06:31:28;11.30;99.90
21815;DHT22;11069;48.988;8.450;2023-04-24T06:33:53;11.30;99.90
21815;DHT22;11069;48.988;8.450;2023-04-24T06:36:19;11.30;99.90
21815;DHT22;11069;48.988;8.450;2023-04-24T06:38:45;11.40;99.90
21815;DHT22;11069;48.988;8.450;2023-04-24T06:41:10;11.50;99.90
21815;DHT22;11069;48.988;8.450;2023-04-24T06:43:36;11.70;99.90
21815;DHT22;11069;48.988;8.450;2023-04-24T06:46:01;12.20;99.90
21815;DHT22;11069;48.988;8.450;2023-04-24T06:48:28;12.40;99.90
21815;DHT22;11069;48.988;8.450;2023-04-24T06:50:54;12.90;99.90
21815;DHT22;11069;48.988;8.450;2023-04-24T06:53:20;13.30;99.90
21815;DHT22;11069;48.988;8.450;2023-04-24T06:55:46;13.00;99.90
21815;DHT22;11069;48.988;8.450;2023-04-24T06:58:12;12.80;99.90
21815;DHT22;11069;48.988;8.450;2023-04-24T07:00:40;12.70;99.90
21815;DHT22;11069;48.988;8.450;2023-04-24T07:03:09;12.60;99.90
21815;DHT22;11069;48.988;8.450;2023-04-24T07:05:35;13.10;99.90
21815;DHT22;11069;48.988;8.450;2023-04-24T07:08:03;13.30;99.90
21815;DHT22;11069;48.988;8.450;2023-04-24T07:10:28;13.80;99.90
21815;DHT22;11069;48.988;8.450;2023-04-24T07:12:55;13.80;99.90
21815;DHT22;11069;48.988;8.450;2023-04-24T07:15:22;13.40;99.90
21815;DHT22;11069;48.988;8.450;2023-04-24T07:17:48;14.00;99.90
21815;DHT22;11069;48.988;8.450;2023-04-24T07:20:14;14.70;99.90
21815;DHT22;11069;48.988;8.450;2023-04-24T07:22:40;14.50;99.90
21815;DHT22;11069;48.988;8.450;2023-04-24T07:25:07;14.50;99.90
21815;DHT22;11069;48.988;8.450;2023-04-24T07:27:33;13.50;99.90
21815;DHT22;11069;48.988;8.450;2023-04-24T07:29:59;12.70;99.90
21815;DHT22;11069;48.988;8.450;2023-04-24T07:32:24;12.30;99.90
21815;DHT22;11069;48.988;8.450;2023-04-24T07:34:50;12.00;99.90
21815;DHT22;11069;48.988;8.450;2023-04-24T07:37:16;12.00;99.90
21815;DHT22;11069;48.988;8.450;2023-04-24T07:39:41;12.50;99.90
21815;DHT22;11069;48.988;8.450;2023-04-24T07:42:07;12.60;99.90
21815;DHT22;11069;48.988;8.450;2023-04-24T07:44:33;12.80;99.90
21815;DHT22;11069;48.988;8.450;2023-04-24T07:46:58;12.80;99.90
21815;DHT22;11069;48.988;8.450;2023-04-24T07:49:25;12.60;99.90
21815;DHT22;11069;48.988;8.450;2023-04-24T07:51:50;12.30;99.90
21815;DHT22;11069;48.988;8.450;2023-04-24T07:54:16;11.90;99.90
21815;DHT22;11069;48.988;8.450;2023-04-24T07:56:42;11.80;99.90
21815;DHT22;11069;48.988;8.450;2023-04-24T07:59:08;11.60;99.90
21815;DHT22;11069;48.988;8.450;2023-04-24T08:01:35;11.60;99.90
21815;DHT22;11069;48.988;8.450;2023-04-24T08:04:01;11.60;99.90
21815;DHT22;11069;48.988;8.450;2023-04-24T08:06:27;11.40;99.90
21815;DHT22;11069;48.988;8.450;2023-04-24T08:08:57;11.50;99.90
21815;DHT22;11069;48.988;8.450;2023-04-24T08:11:24;11.50;99.90
21815;DHT22;11069;48.988;8.450;2023-04-24T08:13:49;11.50;99.90
21815;DHT22;11069;48.988;8.450;2023-04-24T08:16:15;11.60;99.90
21815;DHT22;11069;48.988;8.450;2023-04-24T08:18:41;11.90;99.90
21815;DHT22;11069;48.988;8.450;2023-04-24T08:21:06;12.20;99.90
21815;DHT22;11069;48.988;8.450;2023-04-24T08:23:32;12.30;99.90
21815;DHT22;11069;48.988;8.450;2023-04-24T08:25:57;12.20;99.90
21815;DHT22;11069;48.988;8.450;2023-04-24T08:28:23;12.10;99.90
21815;DHT22;11069;48.988;8.450;2023-04-24T08:30:49;11.70;99.90
21815;DHT22;11069;48.988;8.450;2023-04-24T08:33:20;11.40;99.90
21815;DHT22;11069;48.988;8.450;2023-04-24T08:35:46;11.10;99.90
21815;DHT22;11069;48.988;8.450;2023-04-24T08:38:11;10.80;99.90
21815;DHT22;11069;48.988;8.450;2023-04-24T08:40:37;10.50;99.90
21815;DHT22;11069;48.988;8.450;2023-04-24T08:43:03;10.40;99.90
21815;DHT22;11069;48.988;8.450;2023-04-24T08:45:33;10.30;99.90
21815;DHT22;11069;48.988;8.450;2023-04-24T08:47:59;10.40;99.90
21815;DHT22;11069;48.988;8.450;2023-04-24T08:50:25;10.60;99.90
21815;DHT22;11069;48.988;8.450;2023-04-24T08:52:54;10.90;99.90
21815;DHT22;11069;48.988;8.450;2023-04-24T08:55:27;11.30;99.90
21815;DHT22;11069;48.988;8.450;2023-04-24T08:57:59;11.70;99.90
21815;DHT22;11069;48.988;8.450;2023-04-24T09:00:25;12.10;99.90
21815;DHT22;11069;48.988;8.450;2023-04-24T09:02:53;12.90;99.90
21815;DHT22;11069;48.988;8.450;2023-04-24T09:05:21;13.90;99.90
21815;DHT22;11069;48.988;8.450;2023-04-24T09:07:52;14.90;99.90
21815;DHT22;11069;48.988;8.450;2023-04-24T09:10:18;15.00;99.90
21815;DHT22;11069;48.988;8.450;2023-04-24T09:12:45;14.50;99.90
21815;DHT22;11069;48.988;8.450;2023-04-24T09:15:11;13.80;99.90
21815;DHT22;11069;48.988;8.450;2023-04-24T09:17:38;13.70;99.90
21815;DHT22;11069;48.988;8.450;2023-04-24T09:20:04;13.40;99.90
21815;DHT22;11069;48.988;8.450;2023-04-24T09:22:30;13.20;99.90
21815;DHT22;11069;48.988;8.450;2023-04-24T09:25:07;12.90;99.90
21815;DHT22;11069;48.988;8.450;2023-04-24T09:27:34;12.50;99.90
21815;DHT22;11069;48.988;8.450;2023-04-24T09:30:00;12.60;99.90
21815;DHT22;11069;48.988;8.450;2023-04-24T09:32:26;12.90;99.90
21815;DHT22;11069;48.988;8.450;2023-04-24T09:35:11;12.90;99.90
21815;DHT22;11069;48.988;8.450;2023-04-24T09:37:43;12.90;99.90
21815;DHT22;11069;48.988;8.450;2023-04-24T09:40:22;12.60;99.90
21815;DHT22;11069;48.988;8.450;2023-04-24T09:42:53;12.60;99.90
21815;DHT22;11069;48.988;8.450;2023-04-24T09:45:20;12.90;99.90
21815;DHT22;11069;48.988;8.450;2023-04-24T09:47:52;12.80;99.90
21815;DHT22;11069;48.988;8.450;2023-04-24T09:50:21;12.40;99.90
21815;DHT22;11069;48.988;8.450;2023-04-24T09:52:59;12.30;99.90
21815;DHT22;11069;48.988;8.450;2023-04-24T09:55:26;12.60;99.90
21815;DHT22;11069;48.988;8.450;2023-04-24T09:57:57;12.80;99.90
21815;DHT22;11069;48.988;8.450;2023-04-24T10:00:25;12.90;99.90
21815;DHT22;11069;48.988;8.450;2023-04-24T10:05:33;12.80;99.90
21815;DHT22;11069;48.988;8.450;2023-04-24T10:08:06;13.00;99.90
21815;DHT22;11069;48.988;8.450;2023-04-24T10:10:34;13.60;99.90
21815;DHT22;11069;48.988;8.450;2023-04-24T10:13:00;13.60;99.90
21815;DHT22;11069;48.988;8.450;2023-04-24T10:15:27;13.70;99.90
21815;DHT22;11069;48.988;8.450;2023-04-24T10:17:53;13.40;99.90
21815;DHT22;11069;48.988;8.450;2023-04-24T10:20:24;13.40;99.90
21815;DHT22;11069;48.988;8.450;2023-04-24T10:22:51;13.10;99.90
21815;DHT22;11069;48.988;8.450;2023-04-24T10:25:22;12.80;99.90
21815;DHT22;11069;48.988;8.450;2023-04-24T10:27:49;12.60;99.90
21815;DHT22;11069;48.988;8.450;2023-04-24T10:30:16;12.50;99.90
21815;DHT22;11069;48.988;8.450;2023-04-24T10:32:41;12.50;99.90
21815;DHT22;11069;48.988;8.450;2023-04-24T10:35:08;12.30;99.90
21815;DHT22;11069;48.988;8.450;2023-04-24T10:37:40;12.10;99.90
21815;DHT22;11069;48.988;8.450;2023-04-24T10:40:08;12.00;99.90
21815;DHT22;11069;48.988;8.450;2023-04-24T10:42:34;12.00;99.90
21815;DHT22;11069;48.988;8.450;2023-04-24T10:45:15;12.00;99.90
21815;DHT22;11069;48.988;8.450;2023-04-24T10:47:41;12.00;99.90
21815;DHT22;11069;48.988;8.450;2023-04-24T10:50:09;12.00;99.90
21815;DHT22;11069;48.988;8.450;2023-04-24T10:52:48;12.10;99.90
21815;DHT22;11069;48.988;8.450;2023-04-24T10:55:16;12.10;99.90
21815;DHT22;11069;48.988;8.450;2023-04-24T10:58:05;12.00;99.90
21815;DHT22;11069;48.988;8.450;2023-04-24T11:00:31;11.90;99.90
21815;DHT22;11069;48.988;8.450;2023-04-24T11:02:56;11.80;99.90
21815;DHT22;11069;48.988;8.450;2023-04-24T11:05:53;11.70;99.90
21815;DHT22;11069;48.988;8.450;2023-04-24T11:08:26;11.30;99.90
21815;DHT22;11069;48.988;8.450;2023-04-24T11:11:07;11.00;99.90
21815;DHT22;11069;48.988;8.450;2023-04-24T11:16:31;10.70;99.90
21815;DHT22;11069;48.988;8.450;2023-04-24T11:27:17;11.10;99.90
21815;DHT22;11069;48.988;8.450;2023-04-24T11:37:46;11.50;99.90
21815;DHT22;11069;48.988;8.450;2023-04-24T11:40:13;11.40;99.90
21815;DHT22;11069;48.988;8.450;2023-04-24T11:42:44;11.30;99.90
21815;DHT22;11069;48.988;8.450;2023-04-24T11:45:12;11.10;99.90
21815;DHT22;11069;48.988;8.450;2023-04-24T11:47:38;10.90;99.90
21815;DHT22;11069;48.988;8.450;2023-04-24T11:50:07;10.50;99.90
21815;DHT22;11069;48.988;8.450;2023-04-24T11:52:37;10.30;99.90
21815;DHT22;11069;48.988;8.450;2023-04-24T11:55:03;10.10;99.90
21815;DHT22;11069;48.988;8.450;2023-04-24T11:57:29;9.90;99.90
21815;DHT22;11069;48.988;8.450;2023-04-24T12:00:00;9.90;99.90
21815;DHT22;11069;48.988;8.450;2023-04-24T12:02:27;10.00;99.90
21815;DHT22;11069;48.988;8.450;2023-04-24T12:04:53;10.40;99.90
21815;DHT22;11069;48.988;8.450;2023-04-24T12:07:19;10.80;99.90
21815;DHT22;11069;48.988;8.450;2023-04-24T12:12:15;11.50;99.90
21815;DHT22;11069;48.988;8.450;2023-04-24T12:14:57;12.30;99.90
21815;DHT22;11069;48.988;8.450;2023-04-24T12:17:31;13.00;99.90
21815;DHT22;11069;48.988;8.450;2023-04-24T12:20:03;13.70;99.90
21815;DHT22;11069;48.988;8.450;2023-04-24T12:25:10;14.20;99.90
21815;DHT22;11069;48.988;8.450;2023-04-24T12:27:36;13.80;99.90
21815;DHT22;11069;48.988;8.450;2023-04-24T12:30:04;13.30;99.90
21815;DHT22;11069;48.988;8.450;2023-04-24T12:32:30;13.00;99.90
21815;DHT22;11069;48.988;8.450;2023-04-24T12:34:56;12.90;99.90
21815;DHT22;11069;48.988;8.450;2023-04-24T12:37:26;13.80;99.90
21815;DHT22;11069;48.988;8.450;2023-04-24T12:40:08;14.00;99.90
21815;DHT22;11069;48.988;8.450;2023-04-24T12:42:35;14.60;99.90
21815;DHT22;11069;48.988;8.450;2023-04-24T12:45:05;14.80;99.90
21815;DHT22;11069;48.988;8.450;2023-04-24T12:47:32;14.70;99.90
21815;DHT22;11069;48.988;8.450;2023-04-24T12:49:59;14.60;99.90
21815;DHT22;11069;48.988;8.450;2023-04-24T12:52:26;15.50;99.90
21815;DHT22;11069;48.988;8.450;2023-04-24T12:54:56;16.30;99.90
21815;DHT22;11069;48.988;8.450;2023-04-24T12:57:23;16.60;99.90
21815;DHT22;11069;48.988;8.450;2023-04-24T12:59:49;16.90;99.90
21815;DHT22;11069;48.988;8.450;2023-04-24T13:02:16;16.30;99.90
21815;DHT22;11069;48.988;8.450;2023-04-24T13:04:47;15.10;99.90
21815;DHT22;11069;48.988;8.450;2023-04-24T13:07:13;14.10;99.90
21815;DHT22;11069;48.988;8.450;2023-04-24T13:09:43;13.70;99.90
21815;DHT22;11069;48.988;8.450;2023-04-24T13:12:10;13.60;99.90
21815;DHT22;11069;48.988;8.450;2023-04-24T13:14:37;13.00;99.90
21815;DHT22;11069;48.988;8.450;2023-04-24T13:17:03;12.80;99.90
21815;DHT22;11069;48.988;8.450;2023-04-24T13:19:29;12.70;99.90
21815;DHT22;11069;48.988;8.450;2023-04-24T13:21:56;12.70;99.90
21815;DHT22;11069;48.988;8.450;2023-04-24T13:24:25;13.10;99.90
21815;DHT22;11069;48.988;8.450;2023-04-24T13:26:54;14.10;99.90
21815;DHT22;11069;48.988;8.450;2023-04-24T13:29:22;15.10;99.90
21815;DHT22;11069;48.988;8.450;2023-04-24T13:31:50;16.70;99.90
21815;DHT22;11069;48.988;8.450;2023-04-24T13:34:17;17.90;99.40
21815;DHT22;11069;48.988;8.450;2023-04-24T13:36:43;18.10;99.90
21815;DHT22;11069;48.988;8.450;2023-04-24T13:39:08;18.60;99.90
21815;DHT22;11069;48.988;8.450;2023-04-24T13:41:34;18.80;97.50
21815;DHT22;11069;48.988;8.450;2023-04-24T13:44:00;18.20;96.90
21815;DHT22;11069;48.988;8.450;2023-04-24T13:46:26;17.70;98.00
21815;DHT22;11069;48.988;8.450;2023-04-24T13:48:52;16.90;97.80
21815;DHT22;11069;48.988;8.450;2023-04-24T13:51:17;16.50;99.60
21815;DHT22;11069;48.988;8.450;2023-04-24T13:53:43;17.30;98.10
21815;DHT22;11069;48.988;8.450;2023-04-24T13:56:09;16.90;97.10
21815;DHT22;11069;48.988;8.450;2023-04-24T13:58:35;15.50;98.30
21815;DHT22;11069;48.988;8.450;2023-04-24T14:01:02;14.80;99.90
21815;DHT22;11069;48.988;8.450;2023-04-24T14:03:28;14.80;99.90
21815;DHT22;11069;48.988;8.450;2023-04-24T14:05:54;14.60;99.90
21815;DHT22;11069;48.988;8.450;2023-04-24T14:08:20;14.10;99.90
21815;DHT22;11069;48.988;8.450;2023-04-24T14:10:45;13.70;99.90
21815;DHT22;11069;48.988;8.450;2023-04-24T14:13:11;13.70;99.90
21815;DHT22;11069;48.988;8.450;2023-04-24T14:15:37;13.50;99.90
21815;DHT22;11069;48.988;8.450;2023-04-24T14:18:03;13.60;99.90
21815;DHT22;11069;48.988;8.450;2023-04-24T14:20:29;13.50;99.90
21815;DHT22;11069;48.988;8.450;2023-04-24T14:22:54;13.30;99.90
21815;DHT22;11069;48.988;8.450;2023-04-24T14:25:20;13.20;99.90
21815;DHT22;11069;48.988;8.450;2023-04-24T14:27:47;12.90;99.90
21815;DHT22;11069;48.988;8.450;2023-04-24T14:30:13;12.70;99.90
21815;DHT22;11069;48.988;8.450;2023-04-24T14:32:39;13.30;99.90
21815;DHT22;11069;48.988;8.450;2023-04-24T14:35:06;14.90;99.90
21815;DHT22;11069;48.988;8.450;2023-04-24T14:37:32;16.50;99.90
21815;DHT22;11069;48.988;8.450;2023-04-24T14:39:58;17.10;99.90
21815;DHT22;11069;48.988;8.450;2023-04-24T14:42:23;17.70;99.90
21815;DHT22;11069;48.988;8.450;2023-04-24T14:44:49;18.50;97.00
21815;DHT22;11069;48.988;8.450;2023-04-24T14:47:15;17.80;96.30
21815;DHT22;11069;48.988;8.450;2023-04-24T14:49:43;17.00;96.00
21815;DHT22;11069;48.988;8.450;2023-04-24T14:52:09;17.10;97.00
21815;DHT22;11069;48.988;8.450;2023-04-24T14:54:35;17.50;96.30
21815;DHT22;11069;48.988;8.450;2023-04-24T14:57:01;17.90;94.90
21815;DHT22;11069;48.988;8.450;2023-04-24T14:59:27;17.20;95.30
21815;DHT22;11069;48.988;8.450;2023-04-24T15:01:53;17.20;96.60
21815;DHT22;11069;48.988;8.450;2023-04-24T15:04:25;17.70;98.10
21815;DHT22;11069;48.988;8.450;2023-04-24T15:06:52;18.10;95.30
21815;DHT22;11069;48.988;8.450;2023-04-24T15:09:19;18.10;94.00
21815;DHT22;11069;48.988;8.450;2023-04-24T15:11:45;16.60;95.90
21815;DHT22;11069;48.988;8.450;2023-04-24T15:14:10;15.90;97.70
21815;DHT22;11069;48.988;8.450;2023-04-24T15:16:36;15.10;99.80
21815;DHT22;11069;48.988;8.450;2023-04-24T15:19:02;14.00;99.90
21815;DHT22;11069;48.988;8.450;2023-04-24T15:21:27;13.40;99.90
21815;DHT22;11069;48.988;8.450;2023-04-24T15:23:53;13.40;99.90
21815;DHT22;11069;48.988;8.450;2023-04-24T15:26:19;13.30;99.90
21815;DHT22;11069;48.988;8.450;2023-04-24T15:28:45;13.30;99.90
21815;DHT22;11069;48.988;8.450;2023-04-24T15:31:12;13.20;99.90
21815;DHT22;11069;48.988;8.450;2023-04-24T15:33:37;13.00;99.90
21815;DHT22;11069;48.988;8.450;2023-04-24T15:36:03;12.90;99.90
21815;DHT22;11069;48.988;8.450;2023-04-24T15:38:29;12.80;99.90
21815;DHT22;11069;48.988;8.450;2023-04-24T15:40:55;12.70;99.90
21815;DHT22;11069;48.988;8.450;2023-04-24T15:43:21;12.80;99.90
21815;DHT22;11069;48.988;8.450;2023-04-24T15:45:49;12.60;99.90
21815;DHT22;11069;48.988;8.450;2023-04-24T15:48:15;12.50;99.90
21815;DHT22;11069;48.988;8.450;2023-04-24T15:50:41;12.40;99.90
21815;DHT22;11069;48.988;8.450;2023-04-24T15:53:06;12.30;99.90
21815;DHT22;11069;48.988;8.450;2023-04-24T15:55:32;12.10;99.90
21815;DHT22;11069;48.988;8.450;2023-04-24T15:57:58;12.10;99.90